sensor_id;sensor_type;location;lat;lon;timestamp;temperature;humidity
44982;DHT22;30716;41.740;-70.400;2023-06-26T00:00:25;24.80;52.70
44982;DHT22;30716;41.740;-70.400;2023-06-26T00:02:51;24.80;52.00
44982;DHT22;30716;41.740;-70.400;2023-06-26T00:05:17;24.80;52.20
44982;DHT22;30716;41.740;-70.400;2023-06-26T00:07:43;24.80;52.20
44982;DHT22;30716;41.740;-70.400;2023-06-26T00:10:09;24.80;52.00
44982;DHT22;30716;41.740;-70.400;2023-06-26T00:12:36;24.80;51.90
44982;DHT22;30716;41.740;-70.400;2023-06-26T00:15:02;24.70;51.70
44982;DHT22;30716;41.740;-70.400;2023-06-26T00:17:29;24.70;51.60
44982;DHT22;30716;41.740;-70.400;2023-06-26T00:19:55;24.70;51.20
44982;DHT22;30716;41.740;-70.400;2023-06-26T00:22:22;24.60;50.70
44982;DHT22;30716;41.740;-70.400;2023-06-26T00:24:48;24.60;50.50
44982;DHT22;30716;41.740;-70.400;2023-06-26T00:27:14;24.60;50.30
44982;DHT22;30716;41.740;-70.400;2023-06-26T00:29:40;24.60;50.90
44982;DHT22;30716;41.740;-70.400;2023-06-26T00:32:06;24.60;52.10
44982;DHT22;30716;41.740;-70.400;2023-06-26T00:34:33;24.70;52.40
44982;DHT22;30716;41.740;-70.400;2023-06-26T00:36:59;24.70;52.20
44982;DHT22;30716;41.740;-70.400;2023-06-26T00:39:26;24.70;52.80
44982;DHT22;30716;41.740;-70.400;2023-06-26T00:41:52;24.70;52.90
44982;DHT22;30716;41.740;-70.400;2023-06-26T00:44:21;24.70;52.70
44982;DHT22;30716;41.740;-70.400;2023-06-26T00:46:47;24.80;53.30
44982;DHT22;30716;41.740;-70.400;2023-06-26T00:49:14;24.80;54.60
44982;DHT22;30716;41.740;-70.400;2023-06-26T00:51:40;24.80;55.40
44982;DHT22;30716;41.740;-70.400;2023-06-26T00:54:07;24.80;55.70
44982;DHT22;30716;41.740;-70.400;2023-06-26T00:56:34;24.80;55.50
44982;DHT22;30716;41.740;-70.400;2023-06-26T00:59:00;24.80;56.20
44982;DHT22;30716;41.740;-70.400;2023-06-26T01:01:27;24.80;56.10
44982;DHT22;30716;41.740;-70.400;2023-06-26T01:03:53;24.80;55.90
44982;DHT22;30716;41.740;-70.400;2023-06-26T01:06:23;24.80;55.50
44982;DHT22;30716;41.740;-70.400;2023-06-26T01:08:50;24.80;55.70
44982;DHT22;30716;41.740;-70.400;2023-06-26T01:11:16;24.80;54.90
44982;DHT22;30716;41.740;-70.400;2023-06-26T01:13:44;24.80;55.90
44982;DHT22;30716;41.740;-70.400;2023-06-26T01:16:11;24.80;54.60
44982;DHT22;30716;41.740;-70.400;2023-06-26T01:18:39;24.80;54.60
44982;DHT22;30716;41.740;-70.400;2023-06-26T01:21:12;24.80;54.20
44982;DHT22;30716;41.740;-70.400;2023-06-26T01:24:17;24.80;54.70
44982;DHT22;30716;41.740;-70.400;2023-06-26T01:26:50;24.80;55.50
44982;DHT22;30716;41.740;-70.400;2023-06-26T01:29:20;24.80;55.60
44982;DHT22;30716;41.740;-70.400;2023-06-26T01:31:49;24.80;55.60
44982;DHT22;30716;41.740;-70.400;2023-06-26T01:34:17;24.80;55.60
44982;DHT22;30716;41.740;-70.400;2023-06-26T01:36:45;24.80;54.60
44982;DHT22;30716;41.740;-70.400;2023-06-26T01:39:15;24.80;54.60
44982;DHT22;30716;41.740;-70.400;2023-06-26T01:41:42;24.80;53.70
44982;DHT22;30716;41.740;-70.400;2023-06-26T01:44:35;24.80;54.60
44982;DHT22;30716;41.740;-70.400;2023-06-26T01:47:02;24.70;53.20
44982;DHT22;30716;41.740;-70.400;2023-06-26T01:49:46;24.60;52.80
44982;DHT22;30716;41.740;-70.400;2023-06-26T01:52:35;24.60;52.80
44982;DHT22;30716;41.740;-70.400;2023-06-26T01:55:39;24.60;52.70
44982;DHT22;30716;41.740;-70.400;2023-06-26T01:58:06;24.60;53.00
44982;DHT22;30716;41.740;-70.400;2023-06-26T02:00:33;24.70;54.30
44982;DHT22;30716;41.740;-70.400;2023-06-26T02:02:59;24.70;54.50
44982;DHT22;30716;41.740;-70.400;2023-06-26T02:05:26;24.60;54.20
44982;DHT22;30716;41.740;-70.400;2023-06-26T02:07:52;24.70;53.50
44982;DHT22;30716;41.740;-70.400;2023-06-26T02:10:19;24.70;53.60
44982;DHT22;30716;41.740;-70.400;2023-06-26T02:12:45;24.70;53.70
44982;DHT22;30716;41.740;-70.400;2023-06-26T02:15:11;24.70;54.30
44982;DHT22;30716;41.740;-70.400;2023-06-26T02:17:37;24.70;54.50
44982;DHT22;30716;41.740;-70.400;2023-06-26T02:20:04;24.70;54.50
44982;DHT22;30716;41.740;-70.400;2023-06-26T02:22:33;24.70;54.70
44982;DHT22;30716;41.740;-70.400;2023-06-26T02:24:59;24.70;55.50
44982;DHT22;30716;41.740;-70.400;2023-06-26T02:27:26;24.70;56.10
44982;DHT22;30716;41.740;-70.400;2023-06-26T02:29:52;24.70;55.90
44982;DHT22;30716;41.740;-70.400;2023-06-26T02:32:18;24.70;56.10
44982;DHT22;30716;41.740;-70.400;2023-06-26T02:34:46;24.70;55.50
44982;DHT22;30716;41.740;-70.400;2023-06-26T02:37:12;24.70;55.50
44982;DHT22;30716;41.740;-70.400;2023-06-26T02:39:38;24.70;54.50
44982;DHT22;30716;41.740;-70.400;2023-06-26T02:42:05;24.70;55.30
44982;DHT22;30716;41.740;-70.400;2023-06-26T02:44:31;24.70;55.40
44982;DHT22;30716;41.740;-70.400;2023-06-26T02:46:57;24.70;55.30
44982;DHT22;30716;41.740;-70.400;2023-06-26T02:49:24;24.70;55.50
44982;DHT22;30716;41.740;-70.400;2023-06-26T02:51:50;24.70;55.70
44982;DHT22;30716;41.740;-70.400;2023-06-26T02:54:16;24.70;56.60
44982;DHT22;30716;41.740;-70.400;2023-06-26T02:56:42;24.70;56.80
44982;DHT22;30716;41.740;-70.400;2023-06-26T02:59:09;24.70;56.80
44982;DHT22;30716;41.740;-70.400;2023-06-26T03:01:35;24.70;57.20
44982;DHT22;30716;41.740;-70.400;2023-06-26T03:04:02;24.70;56.40
44982;DHT22;30716;41.740;-70.400;2023-06-26T03:06:28;24.70;57.20
44982;DHT22;30716;41.740;-70.400;2023-06-26T03:08:54;24.70;58.30
44982;DHT22;30716;41.740;-70.400;2023-06-26T03:11:20;24.70;58.10
44982;DHT22;30716;41.740;-70.400;2023-06-26T03:13:46;24.70;57.80
44982;DHT22;30716;41.740;-70.400;2023-06-26T03:16:13;24.70;57.00
44982;DHT22;30716;41.740;-70.400;2023-06-26T03:18:39;24.70;57.40
44982;DHT22;30716;41.740;-70.400;2023-06-26T03:21:06;24.70;56.80
44982;DHT22;30716;41.740;-70.400;2023-06-26T03:23:32;24.70;57.70
44982;DHT22;30716;41.740;-70.400;2023-06-26T03:25:58;24.70;57.50
44982;DHT22;30716;41.740;-70.400;2023-06-26T03:28:24;24.70;57.00
44982;DHT22;30716;41.740;-70.400;2023-06-26T03:30:50;24.70;58.10
44982;DHT22;30716;41.740;-70.400;2023-06-26T03:33:17;24.70;56.50
44982;DHT22;30716;41.740;-70.400;2023-06-26T03:35:43;24.70;56.30
44982;DHT22;30716;41.740;-70.400;2023-06-26T03:38:10;24.70;56.30
44982;DHT22;30716;41.740;-70.400;2023-06-26T03:40:36;24.70;57.40
44982;DHT22;30716;41.740;-70.400;2023-06-26T03:43:02;24.70;56.70
44982;DHT22;30716;41.740;-70.400;2023-06-26T03:45:28;24.70;57.00
44982;DHT22;30716;41.740;-70.400;2023-06-26T03:47:54;24.70;57.10
44982;DHT22;30716;41.740;-70.400;2023-06-26T03:50:20;24.70;56.90
44982;DHT22;30716;41.740;-70.400;2023-06-26T03:52:46;24.70;57.10
44982;DHT22;30716;41.740;-70.400;2023-06-26T03:55:13;24.70;58.10
44982;DHT22;30716;41.740;-70.400;2023-06-26T03:57:39;24.70;58.50
44982;DHT22;30716;41.740;-70.400;2023-06-26T04:00:05;24.70;58.40
44982;DHT22;30716;41.740;-70.400;2023-06-26T04:02:34;24.70;59.10
44982;DHT22;30716;41.740;-70.400;2023-06-26T04:05:01;24.70;58.70
44982;DHT22;30716;41.740;-70.400;2023-06-26T04:07:30;24.70;58.40
44982;DHT22;30716;41.740;-70.400;2023-06-26T04:09:57;24.70;59.10
44982;DHT22;30716;41.740;-70.400;2023-06-26T04:12:23;24.70;58.80
44982;DHT22;30716;41.740;-70.400;2023-06-26T04:14:49;24.70;59.10
44982;DHT22;30716;41.740;-70.400;2023-06-26T04:17:15;24.70;59.50
44982;DHT22;30716;41.740;-70.400;2023-06-26T04:19:42;24.70;59.30
44982;DHT22;30716;41.740;-70.400;2023-06-26T04:22:08;24.70;59.20
44982;DHT22;30716;41.740;-70.400;2023-06-26T04:24:34;24.70;59.40
44982;DHT22;30716;41.740;-70.400;2023-06-26T04:27:00;24.70;58.90
44982;DHT22;30716;41.740;-70.400;2023-06-26T04:29:26;24.70;59.50
44982;DHT22;30716;41.740;-70.400;2023-06-26T04:31:53;24.70;59.60
44982;DHT22;30716;41.740;-70.400;2023-06-26T04:34:27;24.70;59.00
44982;DHT22;30716;41.740;-70.400;2023-06-26T04:36:54;24.70;59.10
44982;DHT22;30716;41.740;-70.400;2023-06-26T04:39:20;24.70;59.40
44982;DHT22;30716;41.740;-70.400;2023-06-26T04:41:46;24.70;58.80
44982;DHT22;30716;41.740;-70.400;2023-06-26T04:44:13;24.70;57.70
44982;DHT22;30716;41.740;-70.400;2023-06-26T04:46:39;24.70;58.40
44982;DHT22;30716;41.740;-70.400;2023-06-26T04:49:10;24.70;57.90
44982;DHT22;30716;41.740;-70.400;2023-06-26T04:51:37;24.70;58.30
44982;DHT22;30716;41.740;-70.400;2023-06-26T04:54:07;24.70;58.20
44982;DHT22;30716;41.740;-70.400;2023-06-26T04:56:34;24.70;58.60
44982;DHT22;30716;41.740;-70.400;2023-06-26T04:59:01;24.70;58.80
44982;DHT22;30716;41.740;-70.400;2023-06-26T05:01:27;24.70;59.20
44982;DHT22;30716;41.740;-70.400;2023-06-26T05:04:04;24.70;59.50
44982;DHT22;30716;41.740;-70.400;2023-06-26T05:06:30;24.70;60.00
44982;DHT22;30716;41.740;-70.400;2023-06-26T05:08:56;24.70;60.10
44982;DHT22;30716;41.740;-70.400;2023-06-26T05:11:23;24.70;59.90
44982;DHT22;30716;41.740;-70.400;2023-06-26T05:13:50;24.70;60.00
44982;DHT22;30716;41.740;-70.400;2023-06-26T05:16:16;24.70;60.10
44982;DHT22;30716;41.740;-70.400;2023-06-26T05:18:42;24.70;60.60
44982;DHT22;30716;41.740;-70.400;2023-06-26T05:21:09;24.70;60.20
44982;DHT22;30716;41.740;-70.400;2023-06-26T05:23:35;24.70;60.20
44982;DHT22;30716;41.740;-70.400;2023-06-26T05:26:02;24.70;59.60
44982;DHT22;30716;41.740;-70.400;2023-06-26T05:28:29;24.70;59.70
44982;DHT22;30716;41.740;-70.400;2023-06-26T05:30:59;24.70;60.10
44982;DHT22;30716;41.740;-70.400;2023-06-26T05:33:26;24.70;60.10
44982;DHT22;30716;41.740;-70.400;2023-06-26T05:35:53;24.70;59.80
44982;DHT22;30716;41.740;-70.400;2023-06-26T05:38:20;24.70;59.40
44982;DHT22;30716;41.740;-70.400;2023-06-26T05:40:47;24.70;59.40
44982;DHT22;30716;41.740;-70.400;2023-06-26T05:43:13;24.70;59.60
44982;DHT22;30716;41.740;-70.400;2023-06-26T05:45:40;24.70;58.00
44982;DHT22;30716;41.740;-70.400;2023-06-26T05:48:07;24.70;57.80
44982;DHT22;30716;41.740;-70.400;2023-06-26T05:50:33;24.70;58.80
44982;DHT22;30716;41.740;-70.400;2023-06-26T05:53:00;24.70;58.80
44982;DHT22;30716;41.740;-70.400;2023-06-26T05:55:29;24.70;58.70
44982;DHT22;30716;41.740;-70.400;2023-06-26T05:57:57;24.70;58.90
44982;DHT22;30716;41.740;-70.400;2023-06-26T06:00:24;24.70;59.50
44982;DHT22;30716;41.740;-70.400;2023-06-26T06:02:52;24.70;59.10
44982;DHT22;30716;41.740;-70.400;2023-06-26T06:05:21;24.70;58.90
44982;DHT22;30716;41.740;-70.400;2023-06-26T06:07:47;24.70;58.40
44982;DHT22;30716;41.740;-70.400;2023-06-26T06:10:14;24.70;59.00
44982;DHT22;30716;41.740;-70.400;2023-06-26T06:12:40;24.70;60.10
44982;DHT22;30716;41.740;-70.400;2023-06-26T06:15:06;24.70;60.00
44982;DHT22;30716;41.740;-70.400;2023-06-26T06:17:33;24.70;60.40
44982;DHT22;30716;41.740;-70.400;2023-06-26T06:19:59;24.70;59.80
44982;DHT22;30716;41.740;-70.400;2023-06-26T06:22:25;24.70;59.20
44982;DHT22;30716;41.740;-70.400;2023-06-26T06:24:51;24.70;59.30
44982;DHT22;30716;41.740;-70.400;2023-06-26T06:27:18;24.70;60.20
44982;DHT22;30716;41.740;-70.400;2023-06-26T06:29:44;24.70;60.90
44982;DHT22;30716;41.740;-70.400;2023-06-26T06:32:10;24.70;61.00
44982;DHT22;30716;41.740;-70.400;2023-06-26T06:34:37;24.70;60.00
44982;DHT22;30716;41.740;-70.400;2023-06-26T06:37:03;24.70;60.20
44982;DHT22;30716;41.740;-70.400;2023-06-26T06:39:29;24.70;59.00
44982;DHT22;30716;41.740;-70.400;2023-06-26T06:41:56;24.70;59.10
44982;DHT22;30716;41.740;-70.400;2023-06-26T06:44:22;24.70;59.00
44982;DHT22;30716;41.740;-70.400;2023-06-26T06:46:48;24.70;58.80
44982;DHT22;30716;41.740;-70.400;2023-06-26T06:49:14;24.70;58.20
44982;DHT22;30716;41.740;-70.400;2023-06-26T06:51:41;24.70;58.10
44982;DHT22;30716;41.740;-70.400;2023-06-26T06:54:08;24.70;59.10
44982;DHT22;30716;41.740;-70.400;2023-06-26T06:56:35;24.70;59.20
44982;DHT22;30716;41.740;-70.400;2023-06-26T06:59:01;24.70;59.10
44982;DHT22;30716;41.740;-70.400;2023-06-26T07:01:27;24.70;59.20
44982;DHT22;30716;41.740;-70.400;2023-06-26T07:03:54;24.70;59.00
44982;DHT22;30716;41.740;-70.400;2023-06-26T07:06:20;24.70;59.10
44982;DHT22;30716;41.740;-70.400;2023-06-26T07:08:46;24.70;60.50
44982;DHT22;30716;41.740;-70.400;2023-06-26T07:11:12;24.70;60.30
44982;DHT22;30716;41.740;-70.400;2023-06-26T07:13:38;24.60;60.20
44982;DHT22;30716;41.740;-70.400;2023-06-26T07:16:04;24.70;60.80
44982;DHT22;30716;41.740;-70.400;2023-06-26T07:18:30;24.70;59.30
44982;DHT22;30716;41.740;-70.400;2023-06-26T07:20:57;24.70;59.90
44982;DHT22;30716;41.740;-70.400;2023-06-26T07:23:23;24.70;60.30
44982;DHT22;30716;41.740;-70.400;2023-06-26T07:25:49;24.70;61.50
44982;DHT22;30716;41.740;-70.400;2023-06-26T07:28:15;24.70;60.70
44982;DHT22;30716;41.740;-70.400;2023-06-26T07:30:42;24.70;58.80
44982;DHT22;30716;41.740;-70.400;2023-06-26T07:33:08;24.70;58.50
44982;DHT22;30716;41.740;-70.400;2023-06-26T07:35:34;24.70;58.50
44982;DHT22;30716;41.740;-70.400;2023-06-26T07:38:00;24.70;58.50
44982;DHT22;30716;41.740;-70.400;2023-06-26T07:40:26;24.70;58.80
44982;DHT22;30716;41.740;-70.400;2023-06-26T07:42:53;24.70;59.00
44982;DHT22;30716;41.740;-70.400;2023-06-26T07:45:19;24.70;58.90
44982;DHT22;30716;41.740;-70.400;2023-06-26T07:47:46;24.70;58.90
44982;DHT22;30716;41.740;-70.400;2023-06-26T07:50:12;24.70;58.40
44982;DHT22;30716;41.740;-70.400;2023-06-26T07:52:41;24.70;59.70
44982;DHT22;30716;41.740;-70.400;2023-06-26T07:55:08;24.70;59.20
44982;DHT22;30716;41.740;-70.400;2023-06-26T07:57:34;24.70;59.40
44982;DHT22;30716;41.740;-70.400;2023-06-26T08:00:00;24.70;59.20
44982;DHT22;30716;41.740;-70.400;2023-06-26T08:02:26;24.70;59.50
44982;DHT22;30716;41.740;-70.400;2023-06-26T08:04:52;24.70;59.90
44982;DHT22;30716;41.740;-70.400;2023-06-26T08:07:19;24.70;60.10
44982;DHT22;30716;41.740;-70.400;2023-06-26T08:09:45;24.70;60.30
44982;DHT22;30716;41.740;-70.400;2023-06-26T08:12:11;24.70;60.60
44982;DHT22;30716;41.740;-70.400;2023-06-26T08:14:37;24.70;60.10
44982;DHT22;30716;41.740;-70.400;2023-06-26T08:17:03;24.60;60.50
44982;DHT22;30716;41.740;-70.400;2023-06-26T08:19:29;24.70;60.20
44982;DHT22;30716;41.740;-70.400;2023-06-26T08:21:56;24.70;60.10
44982;DHT22;30716;41.740;-70.400;2023-06-26T08:24:22;24.70;59.30
44982;DHT22;30716;41.740;-70.400;2023-06-26T08:26:48;24.70;60.60
44982;DHT22;30716;41.740;-70.400;2023-06-26T08:29:15;24.70;60.10
44982;DHT22;30716;41.740;-70.400;2023-06-26T08:31:42;24.70;59.40
44982;DHT22;30716;41.740;-70.400;2023-06-26T08:34:08;24.70;60.00
44982;DHT22;30716;41.740;-70.400;2023-06-26T08:36:34;24.70;59.50
44982;DHT22;30716;41.740;-70.400;2023-06-26T08:39:01;24.70;59.40
44982;DHT22;30716;41.740;-70.400;2023-06-26T08:41:27;24.70;59.60
44982;DHT22;30716;41.740;-70.400;2023-06-26T08:43:53;24.70;59.70
44982;DHT22;30716;41.740;-70.400;2023-06-26T08:46:20;24.70;59.20
44982;DHT22;30716;41.740;-70.400;2023-06-26T08:48:55;24.70;59.10
44982;DHT22;30716;41.740;-70.400;2023-06-26T08:51:24;24.70;59.00
44982;DHT22;30716;41.740;-70.400;2023-06-26T08:54:00;24.70;59.90
44982;DHT22;30716;41.740;-70.400;2023-06-26T08:56:32;24.60;59.60
44982;DHT22;30716;41.740;-70.400;2023-06-26T08:59:01;24.70;59.10
44982;DHT22;30716;41.740;-70.400;2023-06-26T09:01:28;24.70;59.40
44982;DHT22;30716;41.740;-70.400;2023-06-26T09:03:54;24.70;59.50
44982;DHT22;30716;41.740;-70.400;2023-06-26T09:06:20;24.70;59.70
44982;DHT22;30716;41.740;-70.400;2023-06-26T09:08:46;24.70;59.80
44982;DHT22;30716;41.740;-70.400;2023-06-26T09:11:12;24.70;60.00
44982;DHT22;30716;41.740;-70.400;2023-06-26T09:13:39;24.70;59.30
44982;DHT22;30716;41.740;-70.400;2023-06-26T09:16:09;24.70;60.30
44982;DHT22;30716;41.740;-70.400;2023-06-26T09:18:35;24.70;60.00
44982;DHT22;30716;41.740;-70.400;2023-06-26T09:21:08;24.70;60.00
44982;DHT22;30716;41.740;-70.400;2023-06-26T09:23:35;24.70;60.40
44982;DHT22;30716;41.740;-70.400;2023-06-26T09:26:06;24.70;59.30
44982;DHT22;30716;41.740;-70.400;2023-06-26T09:28:33;24.70;59.40
44982;DHT22;30716;41.740;-70.400;2023-06-26T09:31:05;24.70;59.80
44982;DHT22;30716;41.740;-70.400;2023-06-26T09:33:36;24.70;59.60
44982;DHT22;30716;41.740;-70.400;2023-06-26T09:36:09;24.70;59.80
44982;DHT22;30716;41.740;-70.400;2023-06-26T09:38:44;24.70;59.50
44982;DHT22;30716;41.740;-70.400;2023-06-26T09:41:11;24.70;59.80
44982;DHT22;30716;41.740;-70.400;2023-06-26T09:43:46;24.70;60.40
44982;DHT22;30716;41.740;-70.400;2023-06-26T09:46:16;24.60;59.90
44982;DHT22;30716;41.740;-70.400;2023-06-26T09:48:43;24.70;59.10
44982;DHT22;30716;41.740;-70.400;2023-06-26T09:51:10;24.70;59.10
44982;DHT22;30716;41.740;-70.400;2023-06-26T09:53:36;24.70;59.10
44982;DHT22;30716;41.740;-70.400;2023-06-26T09:56:06;24.70;59.40
44982;DHT22;30716;41.740;-70.400;2023-06-26T09:58:33;24.70;60.50
44982;DHT22;30716;41.740;-70.400;2023-06-26T10:00:59;24.70;60.20
44982;DHT22;30716;41.740;-70.400;2023-06-26T10:03:26;24.70;59.80
44982;DHT22;30716;41.740;-70.400;2023-06-26T10:05:52;24.70;59.60
44982;DHT22;30716;41.740;-70.400;2023-06-26T10:08:19;24.70;60.10
44982;DHT22;30716;41.740;-70.400;2023-06-26T10:10:46;24.70;59.90
44982;DHT22;30716;41.740;-70.400;2023-06-26T10:13:28;24.70;60.20
44982;DHT22;30716;41.740;-70.400;2023-06-26T10:15:55;24.70;60.60
44982;DHT22;30716;41.740;-70.400;2023-06-26T10:18:23;24.60;60.10
44982;DHT22;30716;41.740;-70.400;2023-06-26T10:20:54;24.70;60.30
44982;DHT22;30716;41.740;-70.400;2023-06-26T10:23:23;24.70;59.80
44982;DHT22;30716;41.740;-70.400;2023-06-26T10:25:51;24.70;60.40
44982;DHT22;30716;41.740;-70.400;2023-06-26T10:28:19;24.70;60.00
44982;DHT22;30716;41.740;-70.400;2023-06-26T10:30:48;24.70;60.40
44982;DHT22;30716;41.740;-70.400;2023-06-26T10:33:17;24.70;59.60
44982;DHT22;30716;41.740;-70.400;2023-06-26T10:35:44;24.70;60.00
44982;DHT22;30716;41.740;-70.400;2023-06-26T10:38:10;24.70;60.00
44982;DHT22;30716;41.740;-70.400;2023-06-26T10:40:44;24.70;60.00
44982;DHT22;30716;41.740;-70.400;2023-06-26T10:43:12;24.70;60.20
44982;DHT22;30716;41.740;-70.400;2023-06-26T10:45:49;24.70;60.10
44982;DHT22;30716;41.740;-70.400;2023-06-26T10:48:20;24.70;59.20
44982;DHT22;30716;41.740;-70.400;2023-06-26T10:50:48;24.70;59.30
44982;DHT22;30716;41.740;-70.400;2023-06-26T10:56:04;24.70;60.80
44982;DHT22;30716;41.740;-70.400;2023-06-26T10:58:39;24.70;61.70
44982;DHT22;30716;41.740;-70.400;2023-06-26T11:03:46;24.80;59.60
44982;DHT22;30716;41.740;-70.400;2023-06-26T11:06:17;24.80;59.90
44982;DHT22;30716;41.740;-70.400;2023-06-26T11:08:51;24.70;59.30
44982;DHT22;30716;41.740;-70.400;2023-06-26T11:11:22;24.70;59.00
44982;DHT22;30716;41.740;-70.400;2023-06-26T11:14:08;24.70;58.80
44982;DHT22;30716;41.740;-70.400;2023-06-26T11:16:35;24.70;58.50
44982;DHT22;30716;41.740;-70.400;2023-06-26T11:19:02;24.70;58.40
44982;DHT22;30716;41.740;-70.400;2023-06-26T11:21:29;24.70;58.60
44982;DHT22;30716;41.740;-70.400;2023-06-26T11:23:56;24.70;58.40
44982;DHT22;30716;41.740;-70.400;2023-06-26T11:26:26;24.80;58.40
44982;DHT22;30716;41.740;-70.400;2023-06-26T11:28:54;24.80;58.30
44982;DHT22;30716;41.740;-70.400;2023-06-26T11:31:28;24.80;58.30
44982;DHT22;30716;41.740;-70.400;2023-06-26T11:34:05;24.80;58.20
44982;DHT22;30716;41.740;-70.400;2023-06-26T11:36:36;24.80;58.20
44982;DHT22;30716;41.740;-70.400;2023-06-26T11:39:06;24.90;58.30
44982;DHT22;30716;41.740;-70.400;2023-06-26T11:41:34;24.90;58.90
44982;DHT22;30716;41.740;-70.400;2023-06-26T11:44:02;24.90;58.20
44982;DHT22;30716;41.740;-70.400;2023-06-26T11:46:28;24.90;58.20
44982;DHT22;30716;41.740;-70.400;2023-06-26T11:48:54;24.90;58.40
44982;DHT22;30716;41.740;-70.400;2023-06-26T11:51:20;25.00;57.00
44982;DHT22;30716;41.740;-70.400;2023-06-26T11:53:48;24.90;55.70
44982;DHT22;30716;41.740;-70.400;2023-06-26T11:56:15;24.80;54.80
44982;DHT22;30716;41.740;-70.400;2023-06-26T11:59:01;24.70;54.20
44982;DHT22;30716;41.740;-70.400;2023-06-26T12:01:36;24.60;53.90
44982;DHT22;30716;41.740;-70.400;2023-06-26T12:04:04;24.60;53.50
44982;DHT22;30716;41.740;-70.400;2023-06-26T12:06:35;24.50;53.30
44982;DHT22;30716;41.740;-70.400;2023-06-26T12:09:05;24.40;53.60
44982;DHT22;30716;41.740;-70.400;2023-06-26T12:11:32;24.40;54.20
44982;DHT22;30716;41.740;-70.400;2023-06-26T12:13:59;24.50;53.70
44982;DHT22;30716;41.740;-70.400;2023-06-26T12:16:28;24.60;53.90
44982;DHT22;30716;41.740;-70.400;2023-06-26T12:19:05;24.70;53.90
44982;DHT22;30716;41.740;-70.400;2023-06-26T12:24:08;24.80;53.90
44982;DHT22;30716;41.740;-70.400;2023-06-26T12:26:35;24.80;54.00
44982;DHT22;30716;41.740;-70.400;2023-06-26T12:29:12;24.90;54.40
44982;DHT22;30716;41.740;-70.400;2023-06-26T12:31:44;24.90;54.10
44982;DHT22;30716;41.740;-70.400;2023-06-26T12:34:11;24.90;54.20
44982;DHT22;30716;41.740;-70.400;2023-06-26T12:36:47;24.90;54.10
44982;DHT22;30716;41.740;-70.400;2023-06-26T12:39:19;25.00;54.00
44982;DHT22;30716;41.740;-70.400;2023-06-26T12:42:21;25.00;53.80
44982;DHT22;30716;41.740;-70.400;2023-06-26T12:44:39;25.00;54.10
44982;DHT22;30716;41.740;-70.400;2023-06-26T12:47:05;25.00;54.10
44982;DHT22;30716;41.740;-70.400;2023-06-26T12:49:39;25.00;53.70
44982;DHT22;30716;41.740;-70.400;2023-06-26T12:52:10;25.00;52.00
44982;DHT22;30716;41.740;-70.400;2023-06-26T12:54:39;24.90;51.20
44982;DHT22;30716;41.740;-70.400;2023-06-26T12:57:06;24.70;50.30
44982;DHT22;30716;41.740;-70.400;2023-06-26T12:59:36;24.60;50.00
44982;DHT22;30716;41.740;-70.400;2023-06-26T13:02:02;24.40;50.00
44982;DHT22;30716;41.740;-70.400;2023-06-26T13:04:29;24.40;51.20
44982;DHT22;30716;41.740;-70.400;2023-06-26T13:06:56;24.50;52.40
44982;DHT22;30716;41.740;-70.400;2023-06-26T13:09:23;24.60;51.80
44982;DHT22;30716;41.740;-70.400;2023-06-26T13:11:51;24.70;51.60
44982;DHT22;30716;41.740;-70.400;2023-06-26T13:14:17;24.80;52.00
44982;DHT22;30716;41.740;-70.400;2023-06-26T13:16:43;24.80;51.80
44982;DHT22;30716;41.740;-70.400;2023-06-26T13:19:10;24.80;51.50
44982;DHT22;30716;41.740;-70.400;2023-06-26T13:21:36;24.90;51.40
44982;DHT22;30716;41.740;-70.400;2023-06-26T13:24:03;24.90;51.20
44982;DHT22;30716;41.740;-70.400;2023-06-26T13:26:30;24.90;51.00
44982;DHT22;30716;41.740;-70.400;2023-06-26T13:28:56;24.80;51.20
44982;DHT22;30716;41.740;-70.400;2023-06-26T13:31:22;24.90;51.40
44982;DHT22;30716;41.740;-70.400;2023-06-26T13:33:48;24.90;51.70
44982;DHT22;30716;41.740;-70.400;2023-06-26T13:36:15;24.90;51.70
44982;DHT22;30716;41.740;-70.400;2023-06-26T13:38:42;25.00;51.70
44982;DHT22;30716;41.740;-70.400;2023-06-26T13:41:08;25.00;51.80
44982;DHT22;30716;41.740;-70.400;2023-06-26T13:43:34;25.00;52.00
44982;DHT22;30716;41.740;-70.400;2023-06-26T13:46:00;25.00;51.90
44982;DHT22;30716;41.740;-70.400;2023-06-26T13:48:27;25.00;51.80
44982;DHT22;30716;41.740;-70.400;2023-06-26T13:50:53;25.00;51.10
44982;DHT22;30716;41.740;-70.400;2023-06-26T13:53:19;25.00;50.10
44982;DHT22;30716;41.740;-70.400;2023-06-26T13:55:45;25.00;49.80
44982;DHT22;30716;41.740;-70.400;2023-06-26T13:58:12;24.90;49.80
44982;DHT22;30716;41.740;-70.400;2023-06-26T14:00:39;24.80;49.60
44982;DHT22;30716;41.740;-70.400;2023-06-26T14:03:07;24.70;49.50
44982;DHT22;30716;41.740;-70.400;2023-06-26T14:05:34;24.60;49.10
44982;DHT22;30716;41.740;-70.400;2023-06-26T14:08:03;24.60;49.60
44982;DHT22;30716;41.740;-70.400;2023-06-26T14:10:30;24.70;50.70
44982;DHT22;30716;41.740;-70.400;2023-06-26T14:12:59;24.70;50.20
44982;DHT22;30716;41.740;-70.400;2023-06-26T14:15:25;24.80;50.60
44982;DHT22;30716;41.740;-70.400;2023-06-26T14:17:51;24.80;50.50
44982;DHT22;30716;41.740;-70.400;2023-06-26T14:20:18;24.80;50.50
44982;DHT22;30716;41.740;-70.400;2023-06-26T14:22:46;24.90;50.70
44982;DHT22;30716;41.740;-70.400;2023-06-26T14:25:13;24.90;50.80
44982;DHT22;30716;41.740;-70.400;2023-06-26T14:27:39;24.90;50.80
44982;DHT22;30716;41.740;-70.400;2023-06-26T14:30:06;24.90;50.80
44982;DHT22;30716;41.740;-70.400;2023-06-26T14:32:33;25.00;50.90
44982;DHT22;30716;41.740;-70.400;2023-06-26T14:35:00;25.00;51.10
44982;DHT22;30716;41.740;-70.400;2023-06-26T14:37:28;25.00;51.00
44982;DHT22;30716;41.740;-70.400;2023-06-26T14:39:55;25.00;51.00
44982;DHT22;30716;41.740;-70.400;2023-06-26T14:42:22;25.00;50.80
44982;DHT22;30716;41.740;-70.400;2023-06-26T14:44:48;25.00;50.90
44982;DHT22;30716;41.740;-70.400;2023-06-26T14:47:19;25.00;50.00
44982;DHT22;30716;41.740;-70.400;2023-06-26T14:49:45;24.90;48.70
44982;DHT22;30716;41.740;-70.400;2023-06-26T14:52:12;24.70;48.00
44982;DHT22;30716;41.740;-70.400;2023-06-26T14:54:39;24.60;47.60
44982;DHT22;30716;41.740;-70.400;2023-06-26T14:57:06;24.50;47.40
44982;DHT22;30716;41.740;-70.400;2023-06-26T14:59:33;24.40;49.00
44982;DHT22;30716;41.740;-70.400;2023-06-26T15:01:59;24.40;50.00
44982;DHT22;30716;41.740;-70.400;2023-06-26T15:04:25;24.50;49.70
44982;DHT22;30716;41.740;-70.400;2023-06-26T15:06:52;24.70;49.70
44982;DHT22;30716;41.740;-70.400;2023-06-26T15:09:18;24.80;49.90
44982;DHT22;30716;41.740;-70.400;2023-06-26T15:11:45;24.80;49.70
44982;DHT22;30716;41.740;-70.400;2023-06-26T15:14:11;24.90;49.80